createdAt,value
2022-10-13T00:02:16.010Z,24.00
2022-10-13T00:04:59.037Z,24.20
2022-10-13T00:07:43.924Z,24.00
2022-10-13T00:10:27.848Z,24.30
2022-10-13T00:13:10.647Z,25.70
2022-10-13T00:18:37.808Z,22.90
2022-10-13T00:21:23.938Z,25.20
2022-10-13T00:24:11.363Z,25.90
2022-10-13T00:26:54.328Z,24.20
2022-10-13T00:29:37.142Z,26.00
2022-10-13T00:32:20.577Z,22.80
2022-10-13T00:35:03.687Z,27.20
2022-10-13T00:37:46.704Z,24.80
2022-10-13T00:43:20.902Z,22.50
2022-10-13T00:46:03.598Z,25.00
2022-10-13T00:48:47.806Z,23.50
2022-10-13T00:51:33.865Z,25.10
2022-10-13T00:54:20.570Z,26.60
2022-10-13T00:57:04.767Z,24.40
2022-10-13T00:59:48.463Z,23.90
2022-10-13T01:02:34.830Z,24.90
2022-10-13T01:05:21.042Z,26.30
2022-10-13T01:08:04.292Z,27.20
2022-10-13T01:10:53.372Z,25.30
2022-10-13T01:13:43.898Z,26.50
2022-10-13T01:16:50.560Z,25.30
2022-10-13T01:20:15.734Z,25.40
2022-10-13T01:23:17.125Z,24.80
2022-10-13T01:26:37.744Z,26.10
2022-10-13T01:29:29.526Z,24.50
2022-10-13T01:32:31.948Z,26.10
2022-10-13T01:35:38.459Z,26.40
2022-10-13T01:38:24.458Z,26.00
2022-10-13T01:41:26.521Z,25.40
2022-10-13T01:44:21.713Z,26.50
2022-10-13T01:47:11.569Z,26.10
2022-10-13T01:49:56.660Z,26.10
2022-10-13T01:52:40.860Z,24.80
2022-10-13T01:55:23.614Z,26.60
2022-10-13T01:58:06.432Z,27.10
2022-10-13T02:03:57.753Z,24.20
2022-10-13T02:06:53.441Z,25.60
2022-10-13T02:10:07.145Z,28.40
2022-10-13T02:13:02.667Z,27.50
2022-10-13T02:15:49.447Z,26.40
2022-10-13T02:18:34.623Z,26.50
2022-10-13T02:21:18.112Z,26.10
2022-10-13T02:24:02.076Z,26.50
2022-10-13T02:26:46.166Z,29.40
2022-10-13T02:29:30.161Z,25.60
2022-10-13T02:32:12.844Z,25.70
2022-10-13T02:34:55.569Z,26.50
2022-10-13T02:40:20.995Z,26.60
2022-10-13T02:43:04.120Z,27.30
2022-10-13T02:45:46.840Z,26.20
2022-10-13T02:48:29.581Z,24.70
2022-10-13T02:51:12.351Z,27.30
2022-10-13T02:53:55.049Z,25.30
2022-10-13T02:56:37.799Z,27.00
2022-10-13T02:59:20.474Z,25.00
2022-10-13T03:02:03.132Z,26.00
2022-10-13T03:07:28.834Z,27.00
2022-10-13T03:12:55.379Z,25.60
2022-10-13T03:15:38.130Z,25.20
2022-10-13T03:18:21.825Z,25.90
2022-10-13T03:21:06.994Z,26.80
2022-10-13T03:23:51.746Z,26.50
2022-10-13T03:26:35.235Z,27.10
2022-10-13T03:29:18.620Z,24.70
2022-10-13T03:32:01.339Z,26.50
2022-10-13T03:37:29.734Z,21.90
2022-10-13T03:40:12.736Z,23.80
2022-10-13T03:42:55.456Z,27.90
2022-10-13T03:45:38.140Z,25.40
2022-10-13T03:48:20.869Z,25.60
2022-10-13T03:51:11.166Z,26.70
2022-10-13T03:53:55.454Z,27.10
2022-10-13T03:56:39.971Z,25.00
2022-10-13T03:59:22.839Z,23.70
2022-10-13T04:02:05.900Z,27.00
2022-10-13T04:04:48.792Z,25.50
2022-10-13T04:07:32.094Z,27.70
2022-10-13T04:10:20.504Z,28.20
2022-10-13T04:13:05.804Z,29.10
2022-10-13T04:15:48.519Z,26.70
2022-10-13T04:18:32.153Z,28.70
2022-10-13T04:21:15.265Z,28.40
2022-10-13T04:23:59.527Z,27.00
2022-10-13T04:26:42.429Z,28.00
2022-10-13T04:29:25.338Z,28.70
2022-10-13T04:32:09.607Z,29.30
2022-10-13T04:37:35.106Z,26.20
2022-10-13T04:40:19.250Z,28.30
2022-10-13T04:43:02.570Z,28.20
2022-10-13T04:45:45.493Z,28.80
2022-10-13T04:48:29.323Z,28.00
2022-10-13T04:51:14.879Z,31.20
2022-10-13T04:54:01.217Z,29.30
2022-10-13T04:56:45.887Z,28.60
2022-10-13T04:59:28.761Z,28.20
2022-10-13T05:04:54.413Z,28.90
2022-10-13T05:10:20.327Z,26.90
2022-10-13T05:13:03.847Z,32.50
2022-10-13T05:15:46.707Z,28.90
2022-10-13T05:18:30.493Z,29.90
2022-10-13T05:21:19.291Z,30.40
2022-10-13T05:24:02.566Z,28.70
2022-10-13T05:26:45.275Z,31.70
2022-10-13T05:29:28.052Z,30.00
2022-10-13T05:34:53.473Z,30.90
2022-10-13T05:37:36.463Z,32.50
2022-10-13T05:43:04.293Z,28.70
2022-10-13T05:48:30.332Z,31.60
2022-10-13T05:51:17.999Z,34.10
2022-10-13T05:54:07.059Z,39.10
2022-10-13T05:57:10.489Z,45.30
2022-10-13T06:00:00.729Z,47.00
2022-10-13T06:02:57.300Z,46.10
2022-10-13T06:05:40.859Z,55.30
2022-10-13T06:08:23.767Z,52.40
2022-10-13T06:11:07.547Z,50.10
2022-10-13T06:13:50.280Z,48.40
2022-10-13T06:19:17.329Z,43.60
2022-10-13T06:24:46.284Z,41.70
2022-10-13T06:27:29.056Z,41.90
2022-10-13T06:30:13.304Z,47.20
2022-10-13T06:32:56.662Z,44.00
2022-10-13T06:35:39.658Z,46.50
2022-10-13T06:38:24.162Z,48.30
2022-10-13T06:41:07.010Z,45.90
2022-10-13T06:43:52.277Z,48.40
2022-10-13T06:46:37.117Z,46.50
2022-10-13T06:49:21.205Z,43.90
2022-10-13T06:52:05.259Z,43.60
2022-10-13T06:54:48.042Z,41.90
2022-10-13T06:57:33.324Z,34.90
2022-10-13T07:00:21.165Z,32.90
2022-10-13T07:03:04.083Z,31.40
2022-10-13T07:05:46.956Z,27.80
2022-10-13T07:08:30.592Z,29.90
2022-10-13T07:11:16.349Z,25.90
2022-10-13T07:14:03.489Z,24.90
2022-10-13T07:16:48.856Z,23.00
2022-10-13T07:19:31.654Z,22.80
2022-10-13T07:22:14.450Z,21.80
2022-10-13T07:24:57.307Z,21.50
2022-10-13T07:27:41.041Z,19.80
2022-10-13T07:30:23.759Z,20.90
2022-10-13T07:33:07.259Z,20.80
2022-10-13T07:35:49.966Z,20.20
2022-10-13T07:38:32.779Z,20.20
2022-10-13T07:41:16.103Z,21.60
2022-10-13T07:43:59.271Z,19.10
2022-10-13T07:46:43.084Z,18.30
2022-10-13T07:49:25.882Z,19.40
2022-10-13T07:52:08.587Z,18.20
2022-10-13T07:54:51.359Z,17.80
2022-10-13T07:57:34.605Z,19.90
2022-10-13T08:00:17.960Z,18.90
2022-10-13T08:03:00.857Z,19.50
2022-10-13T08:05:43.666Z,18.70
2022-10-13T08:08:26.533Z,19.40
2022-10-13T08:11:16.366Z,18.90
2022-10-13T08:14:01.822Z,18.30
2022-10-13T08:16:48.715Z,17.80
2022-10-13T08:19:34.512Z,17.50
2022-10-13T08:22:17.288Z,19.10
2022-10-13T08:25:02.141Z,17.80
2022-10-13T08:27:50.969Z,19.00
2022-10-13T08:30:34.970Z,18.90
2022-10-13T08:33:17.947Z,17.60
2022-10-13T08:36:00.682Z,18.00
2022-10-13T08:38:44.537Z,17.60
2022-10-13T08:41:31.748Z,18.40
2022-10-13T08:45:06.334Z,18.00
2022-10-13T08:47:44.489Z,16.70
2022-10-13T08:50:31.966Z,16.30
2022-10-13T08:53:29.382Z,16.50
2022-10-13T08:56:31.792Z,17.10
2022-10-13T08:59:17.063Z,16.00
2022-10-13T09:01:59.916Z,16.10
2022-10-13T09:04:46.756Z,17.40
2022-10-13T09:07:34.791Z,14.40
2022-10-13T09:10:18.855Z,16.90
2022-10-13T09:13:01.845Z,15.80
2022-10-13T09:15:47.558Z,16.10
2022-10-13T09:18:33.742Z,15.40
2022-10-13T09:21:21.643Z,14.50
2022-10-13T09:24:12.017Z,13.90
2022-10-13T09:27:14.519Z,15.10
2022-10-13T09:29:57.737Z,15.30
2022-10-13T09:32:40.856Z,13.80
2022-10-13T09:35:23.951Z,14.20
2022-10-13T09:38:15.018Z,13.70
2022-10-13T09:41:10.455Z,13.90
2022-10-13T09:43:53.264Z,12.90
2022-10-13T09:46:50.711Z,13.40
2022-10-13T09:49:44.797Z,13.20
2022-10-13T09:52:28.306Z,13.40
2022-10-13T09:55:34.762Z,13.10
2022-10-13T09:58:31.041Z,12.40
2022-10-13T10:01:28.413Z,11.70
2022-10-13T10:04:16.273Z,12.60
2022-10-13T10:06:59.369Z,12.00
2022-10-13T10:09:48.233Z,11.50
2022-10-13T10:12:37.500Z,11.30
2022-10-13T10:15:47.819Z,10.70
2022-10-13T10:18:45.273Z,12.00
2022-10-13T10:21:37.582Z,11.50
2022-10-13T10:24:29.385Z,10.90
2022-10-13T10:27:21.853Z,10.90
2022-10-13T10:30:18.185Z,10.50
2022-10-13T10:33:12.186Z,8.90
2022-10-13T10:36:19.000Z,9.40
2022-10-13T10:39:42.369Z,10.40
2022-10-13T10:43:00.711Z,8.40
2022-10-13T10:45:47.573Z,9.20
2022-10-13T10:48:37.937Z,8.50
2022-10-13T10:51:25.669Z,9.40
2022-10-13T10:54:11.448Z,9.10
2022-10-13T10:57:24.784Z,10.90
2022-10-13T11:00:21.275Z,8.50
2022-10-13T11:03:19.874Z,9.50
2022-10-13T11:06:33.092Z,7.20
2022-10-13T11:09:41.814Z,8.70
2022-10-13T11:12:26.624Z,6.90
2022-10-13T11:15:12.904Z,8.30
2022-10-13T11:17:55.703Z,8.10
2022-10-13T11:20:38.540Z,8.00
2022-10-13T11:23:21.193Z,7.30
2022-10-13T11:26:43.255Z,8.20
2022-10-13T11:29:53.934Z,8.20
2022-10-13T11:32:36.603Z,8.30
2022-10-13T11:35:28.483Z,7.70
2022-10-13T11:38:27.807Z,8.10
2022-10-13T11:41:22.812Z,7.30
2022-10-13T11:44:41.442Z,7.90
2022-10-13T11:47:46.837Z,7.90
2022-10-13T11:50:39.804Z,8.20
2022-10-13T11:53:40.410Z,8.30
2022-10-13T11:56:38.270Z,8.30
2022-10-13T11:59:33.179Z,10.30
2022-10-13T12:02:19.247Z,8.00
2022-10-13T12:05:07.289Z,7.00
2022-10-13T12:07:57.200Z,8.50
2022-10-13T12:10:40.091Z,8.90
2022-10-13T12:13:28.600Z,8.00
2022-10-13T12:16:13.697Z,8.40
2022-10-13T12:19:20.170Z,8.70
2022-10-13T12:22:03.057Z,8.60
2022-10-13T12:25:01.278Z,8.60
2022-10-13T12:27:53.963Z,8.30
2022-10-13T12:30:37.286Z,9.40
2022-10-13T12:33:31.866Z,8.90
2022-10-13T12:36:21.887Z,8.40
2022-10-13T12:39:10.942Z,9.00
2022-10-13T12:41:55.145Z,10.30
2022-10-13T12:44:38.881Z,11.10
2022-10-13T12:47:47.414Z,8.40
2022-10-13T12:50:37.734Z,9.10
2022-10-13T12:53:28.670Z,8.40
2022-10-13T12:56:27.663Z,10.00
2022-10-13T12:59:17.282Z,8.90
2022-10-13T13:02:04.550Z,10.00
2022-10-13T13:04:47.537Z,8.50
2022-10-13T13:07:30.348Z,8.30
2022-10-13T13:10:19.204Z,8.90
2022-10-13T13:13:15.420Z,8.10
2022-10-13T13:16:18.948Z,9.20
2022-10-13T13:19:01.821Z,10.60
2022-10-13T13:21:44.596Z,8.80
2022-10-13T13:24:39.250Z,7.30
2022-10-13T13:27:36.481Z,8.70
2022-10-13T13:30:21.708Z,8.70
2022-10-13T13:33:04.679Z,9.70
2022-10-13T13:35:49.056Z,7.90
2022-10-13T13:38:32.309Z,11.10
2022-10-13T13:41:15.735Z,8.90
2022-10-13T13:43:58.603Z,8.30
2022-10-13T13:46:42.200Z,10.20
2022-10-13T13:49:25.094Z,9.80
2022-10-13T13:52:07.906Z,10.00
2022-10-13T13:54:51.436Z,8.80
2022-10-13T13:57:34.188Z,10.90
2022-10-13T14:00:18.101Z,11.30
2022-10-13T14:03:01.408Z,9.10
2022-10-13T14:05:44.299Z,10.00
2022-10-13T14:08:31.741Z,10.40
2022-10-13T14:11:15.065Z,10.00
2022-10-13T14:14:02.074Z,9.20
2022-10-13T14:16:44.951Z,10.00
2022-10-13T14:19:27.800Z,9.20
2022-10-13T14:22:10.482Z,11.70
2022-10-13T14:24:53.323Z,9.80
2022-10-13T14:27:37.169Z,9.60
2022-10-13T14:30:20.347Z,10.40
2022-10-13T14:33:05.140Z,10.10
2022-10-13T14:35:47.793Z,9.90
2022-10-13T14:38:33.434Z,10.30
2022-10-13T14:41:17.188Z,10.10
2022-10-13T14:44:01.611Z,9.60
2022-10-13T14:46:44.297Z,10.00
2022-10-13T14:49:27.075Z,8.60
2022-10-13T14:52:10.066Z,9.50
2022-10-13T14:54:52.775Z,10.60
2022-10-13T14:57:35.571Z,10.60
2022-10-13T15:00:18.333Z,11.00
2022-10-13T15:03:01.027Z,10.20
2022-10-13T15:05:43.752Z,11.80
2022-10-13T15:08:26.448Z,10.10
2022-10-13T15:11:09.351Z,10.30
2022-10-13T15:13:52.651Z,11.40
2022-10-13T15:16:37.134Z,10.20
2022-10-13T15:19:19.913Z,10.10
2022-10-13T15:22:02.827Z,10.50
2022-10-13T15:24:45.946Z,10.60
2022-10-13T15:27:29.687Z,9.10
2022-10-13T15:30:13.006Z,9.70
2022-10-13T15:32:55.731Z,10.80
2022-10-13T15:35:38.405Z,11.30
2022-10-13T15:38:21.798Z,10.40
2022-10-13T15:41:05.893Z,11.50
2022-10-13T15:43:48.911Z,10.10
2022-10-13T15:46:31.874Z,10.30
2022-10-13T15:49:14.559Z,10.10
2022-10-13T15:51:57.502Z,10.30
2022-10-13T15:54:41.028Z,11.60
2022-10-13T15:57:24.203Z,13.10
2022-10-13T16:00:08.874Z,12.70
2022-10-13T16:02:57.278Z,11.70
2022-10-13T16:05:41.854Z,13.20
2022-10-13T16:08:24.663Z,14.70
2022-10-13T16:11:09.461Z,13.90
2022-10-13T16:13:52.745Z,14.20
2022-10-13T16:16:35.661Z,15.90
2022-10-13T16:19:18.354Z,16.40
2022-10-13T16:22:01.083Z,16.30
2022-10-13T16:24:43.923Z,16.60
2022-10-13T16:27:26.705Z,15.10
2022-10-13T16:30:10.015Z,16.30
2022-10-13T16:32:52.846Z,16.40
2022-10-13T16:35:35.601Z,17.90
2022-10-13T16:38:18.340Z,18.90
2022-10-13T16:41:10.220Z,19.50
2022-10-13T16:43:53.150Z,19.70
2022-10-13T16:46:36.116Z,19.80
2022-10-13T16:49:18.853Z,20.40
2022-10-13T16:52:01.691Z,21.90
2022-10-13T16:54:46.111Z,21.30
2022-10-13T16:57:30.496Z,21.30
2022-10-13T17:00:13.893Z,23.80
2022-10-13T17:02:56.690Z,23.60
2022-10-13T17:05:39.489Z,23.60
2022-10-13T17:08:22.625Z,24.80
2022-10-13T17:11:06.645Z,27.60
2022-10-13T17:13:50.163Z,24.10
2022-10-13T17:16:34.025Z,25.60
2022-10-13T17:19:17.337Z,26.50
2022-10-13T17:22:00.087Z,28.70
2022-10-13T17:24:48.117Z,28.40
2022-10-13T17:27:30.893Z,31.10
2022-10-13T17:30:13.675Z,30.50
2022-10-13T17:32:59.593Z,28.60
2022-10-13T17:35:46.141Z,28.60
2022-10-13T17:41:12.573Z,23.50
2022-10-13T17:44:13.454Z,24.50
2022-10-13T17:46:56.376Z,23.90
2022-10-13T17:49:39.155Z,24.70
2022-10-13T17:52:22.053Z,28.20
2022-10-13T17:55:06.139Z,27.70
2022-10-13T17:57:48.950Z,25.30
2022-10-13T18:00:36.594Z,25.90
2022-10-13T18:03:26.732Z,27.30
2022-10-13T18:06:09.772Z,24.20
2022-10-13T18:08:52.516Z,23.10
2022-10-13T18:11:36.595Z,26.40
2022-10-13T18:14:21.323Z,28.90
2022-10-13T18:17:04.378Z,26.50
2022-10-13T18:19:49.192Z,25.40
2022-10-13T18:22:31.953Z,24.80
2022-10-13T18:25:14.907Z,25.20
2022-10-13T18:27:57.797Z,24.60
2022-10-13T18:30:40.608Z,25.50
2022-10-13T18:33:24.463Z,24.00
2022-10-13T18:36:16.526Z,24.30
2022-10-13T18:39:03.563Z,23.60
2022-10-13T18:41:47.291Z,22.10
2022-10-13T18:44:30.277Z,22.60
2022-10-13T18:47:13.094Z,22.20
2022-10-13T18:49:55.863Z,22.40
2022-10-13T18:52:38.804Z,22.70
2022-10-13T18:55:21.613Z,20.30
2022-10-13T18:58:04.637Z,21.90
2022-10-13T19:00:47.695Z,22.80
2022-10-13T19:03:32.707Z,23.20
2022-10-13T19:06:16.731Z,25.10
2022-10-13T19:09:05.007Z,24.60
2022-10-13T19:11:49.419Z,24.40
2022-10-13T19:14:32.522Z,24.10
2022-10-13T19:17:15.383Z,25.30
2022-10-13T19:19:58.253Z,23.40
2022-10-13T19:22:41.066Z,23.30
2022-10-13T19:25:25.548Z,25.80
2022-10-13T19:28:08.874Z,24.00
2022-10-13T19:30:52.285Z,26.20
2022-10-13T19:33:35.503Z,28.90
2022-10-13T19:36:33.733Z,27.20
2022-10-13T19:39:24.754Z,25.40
2022-10-13T19:42:07.462Z,25.80
2022-10-13T19:47:33.869Z,28.50
2022-10-13T19:50:16.665Z,28.90
2022-10-13T19:52:59.403Z,31.10
2022-10-13T19:55:44.493Z,30.20
2022-10-13T19:58:27.613Z,29.30
2022-10-13T20:01:10.676Z,28.30
2022-10-13T20:03:54.064Z,31.20
2022-10-13T20:06:37.690Z,30.40
2022-10-13T20:09:20.670Z,30.60
2022-10-13T20:12:03.516Z,29.80
2022-10-13T20:14:47.703Z,28.30
2022-10-13T20:20:13.184Z,28.60
2022-10-13T20:22:56.042Z,27.50
2022-10-13T20:25:39.195Z,28.90
2022-10-13T20:28:21.981Z,30.70
2022-10-13T20:31:05.560Z,28.70
2022-10-13T20:33:52.982Z,27.80
2022-10-13T20:36:39.065Z,28.40
2022-10-13T20:39:22.232Z,29.00
2022-10-13T20:42:05.033Z,27.50
2022-10-13T20:44:47.795Z,28.40
2022-10-13T20:47:30.464Z,29.00
2022-10-13T20:52:55.958Z,26.60
2022-10-13T20:55:41.902Z,27.40
2022-10-13T20:58:29.769Z,27.90
2022-10-13T21:01:14.172Z,28.70
2022-10-13T21:03:57.038Z,27.30
2022-10-13T21:06:41.123Z,28.80
2022-10-13T21:09:23.970Z,28.30
2022-10-13T21:12:06.987Z,27.90
2022-10-13T21:14:49.799Z,27.30
2022-10-13T21:17:32.598Z,29.60
2022-10-13T21:20:15.468Z,30.00
2022-10-13T21:22:59.568Z,28.10
2022-10-13T21:25:42.585Z,31.80
2022-10-13T21:28:25.335Z,29.60
2022-10-13T21:31:13.838Z,30.20
2022-10-13T21:33:59.992Z,31.80
2022-10-13T21:36:44.643Z,31.20
2022-10-13T21:39:29.262Z,34.10
2022-10-13T21:42:11.986Z,30.60
2022-10-13T21:44:54.977Z,32.80
2022-10-13T21:47:38.184Z,30.50
2022-10-13T21:50:21.033Z,32.50
2022-10-13T21:53:03.789Z,31.30
2022-10-13T21:55:46.485Z,32.40
2022-10-13T22:01:12.362Z,32.90
2022-10-13T22:03:57.891Z,31.70
2022-10-13T22:06:44.128Z,34.60
2022-10-13T22:09:26.843Z,34.30
2022-10-13T22:12:13.941Z,35.50
2022-10-13T22:14:56.743Z,36.20
2022-10-13T22:17:39.417Z,34.50
2022-10-13T22:23:05.032Z,33.50
2022-10-13T22:25:48.204Z,35.40
2022-10-13T22:28:36.890Z,35.30
2022-10-13T22:31:20.193Z,33.20
2022-10-13T22:39:28.815Z,34.20
2022-10-13T22:42:17.156Z,34.10
2022-10-13T22:45:00.304Z,34.30
2022-10-13T22:47:43.394Z,36.20
2022-10-13T22:50:26.410Z,36.30
2022-10-13T22:53:09.213Z,37.40
2022-10-13T22:55:52.022Z,36.20
2022-10-13T22:58:35.094Z,35.60
2022-10-13T23:01:18.910Z,38.80
2022-10-13T23:04:01.759Z,38.20
2022-10-13T23:06:44.457Z,38.10
2022-10-13T23:12:09.934Z,37.90
2022-10-13T23:14:53.718Z,37.30
2022-10-13T23:17:36.529Z,39.60
2022-10-13T23:20:19.659Z,39.00
2022-10-13T23:23:02.563Z,38.10
2022-10-13T23:28:28.163Z,39.40
2022-10-13T23:31:15.382Z,38.50
2022-10-13T23:33:58.987Z,40.00
2022-10-13T23:36:42.003Z,38.20
2022-10-13T23:42:09.881Z,36.30
2022-10-13T23:44:53.817Z,38.20
2022-10-13T23:47:36.526Z,40.00
2022-10-13T23:53:02.126Z,38.30
2022-10-13T23:55:46.122Z,37.20
2022-10-13T23:58:28.863Z,38.00
